Time;durP1;ratioP1;P1;durP2;ratioP2;P2;SDS_P1;SDS_P2;PMS_P1;PMS_P2;Temp;Humidity;BMP_temperature;BMP_pressure;BME280_temperature;BME280_humidity;BME280_pressure;Samples;Min_cycle;Max_cycle;Signal;HPM_P1;HPM_P2
2022/12/03 00:00:50;;;;;;;5.32;2.55;;;;;;;4.16;100.00;102632.88;5059005;28;20107;-77
2022/12/03 00:03:16;;;;;;;4.07;3.03;;;;;;;4.12;100.00;102622.56;5055905;28;20060;-75
2022/12/03 00:05:41;;;;;;;3.47;2.53;;;;;;;4.11;100.00;102625.22;5059950;28;20034;-77
2022/12/03 00:08:06;;;;;;;4.18;3.28;;;;;;;4.05;100.00;102605.44;5057203;28;20299;-76
2022/12/03 00:10:31;;;;;;;5.53;3.45;;;;;;;4.19;100.00;102627.53;5025795;28;20028;-76
2022/12/03 00:12:57;;;;;;;4.47;2.63;;;;;;;4.19;100.00;102617.06;5055607;28;20111;-77
2022/12/03 00:15:23;;;;;;;6.55;3.88;;;;;;;4.21;100.00;102612.63;5056702;28;20039;-76
2022/12/03 00:17:48;;;;;;;5.15;2.88;;;;;;;4.22;100.00;102623.00;5058739;28;20021;-77
2022/12/03 00:20:21;;;;;;;4.85;3.28;;;;;;;4.12;100.00;102600.81;5057590;28;20102;-76
2022/12/03 00:22:47;;;;;;;5.28;2.63;;;;;;;4.25;100.00;102614.19;5056690;28;20031;-76
2022/12/03 00:25:12;;;;;;;3.03;2.33;;;;;;;4.28;100.00;102606.22;5059003;28;20044;-76
2022/12/03 00:27:38;;;;;;;6.57;3.33;;;;;;;4.22;100.00;102589.03;5058281;28;20079;-76
2022/12/03 00:30:04;;;;;;;5.47;3.20;;;;;;;4.32;100.00;102599.94;5058660;28;20094;-76
2022/12/03 00:32:30;;;;;;;3.95;3.45;;;;;;;4.34;100.00;102592.88;5059158;28;20031;-76
2022/12/03 00:34:55;;;;;;;3.22;2.50;;;;;;;4.29;100.00;102577.41;5055382;28;20396;-77
2022/12/03 00:37:20;;;;;;;4.10;2.80;;;;;;;4.39;100.00;102598.75;5051615;28;20066;-77
2022/12/03 00:39:46;;;;;;;5.55;2.47;;;;;;;4.36;100.00;102591.06;5054346;28;20515;-78
2022/12/03 00:42:11;;;;;;;4.72;3.10;;;;;;;4.40;100.00;102597.84;5034695;28;20857;-76
2022/12/03 00:44:36;;;;;;;2.78;2.33;;;;;;;4.31;100.00;102580.81;5039060;28;20037;-77
2022/12/03 00:47:02;;;;;;;3.90;2.80;;;;;;;4.36;100.00;102587.59;5051775;28;20039;-77
2022/12/03 00:49:27;;;;;;;3.10;2.83;;;;;;;4.29;100.00;102587.88;5020774;28;20059;-77
2022/12/03 00:51:53;;;;;;;3.95;2.45;;;;;;;4.34;100.00;102590.28;5054338;28;20146;-76
2022/12/03 00:54:18;;;;;;;7.55;3.40;;;;;;;4.32;100.00;102581.66;5037683;28;20495;-77
2022/12/03 00:56:43;;;;;;;4.78;2.70;;;;;;;4.40;100.00;102590.00;5050430;28;20153;-76
2022/12/03 00:59:09;;;;;;;4.22;3.45;;;;;;;4.31;100.00;102570.34;5037550;28;20035;-76
2022/12/03 01:01:34;;;;;;;9.20;4.05;;;;;;;4.34;100.00;102585.06;5059877;28;20037;-76
2022/12/03 01:03:59;;;;;;;3.65;2.83;;;;;;;4.34;100.00;102587.66;5053665;28;20463;-76
2022/12/03 01:06:25;;;;;;;5.07;2.75;;;;;;;4.33;100.00;102583.34;5052558;28;20082;-77
2022/12/03 01:08:50;;;;;;;5.95;4.05;;;;;;;4.38;100.00;102586.63;5052102;28;20040;-76
2022/12/03 01:13:59;;;;;;;3.22;2.60;;;;;;;4.32;100.00;102581.66;5057473;28;20048;-75
2022/12/03 01:16:25;;;;;;;4.22;2.22;;;;;;;4.27;100.00;102574.00;5053159;28;20032;-76
2022/12/03 01:18:51;;;;;;;8.02;3.05;;;;;;;4.36;100.00;102587.59;5055544;28;20036;-76
2022/12/03 01:21:18;;;;;;;5.60;2.70;;;;;;;4.25;100.00;102572.38;5057181;28;20033;-75
2022/12/03 01:23:43;;;;;;;4.50;2.63;;;;;;;4.27;100.00;102573.16;5037157;28;20480;-79
2022/12/03 01:26:08;;;;;;;8.52;3.33;;;;;;;4.19;100.00;102559.59;5053034;28;20043;-75
2022/12/03 01:28:34;;;;;;;3.90;2.35;;;;;;;4.40;100.00;102587.41;5021528;28;20512;-76
2022/12/03 01:33:43;;;;;;;3.53;2.58;;;;;;;4.41;100.00;102576.00;5039805;28;20102;-77
2022/12/03 01:36:08;;;;;;;4.57;2.90;;;;;;;4.39;100.00;102588.31;5038022;28;20032;-77
2022/12/03 01:38:34;;;;;;;5.70;3.22;;;;;;;4.42;100.00;102577.72;5038628;28;20036;-77
2022/12/03 01:40:59;;;;;;;6.28;3.42;;;;;;;4.41;100.00;102560.31;5052752;28;20028;-77
2022/12/03 01:43:25;;;;;;;5.82;3.00;;;;;;;4.27;100.00;102563.56;5051001;28;20039;-77
2022/12/03 01:45:50;;;;;;;4.70;3.22;;;;;;;4.34;100.00;102577.22;5054098;28;20078;-76
2022/12/03 01:48:16;;;;;;;5.82;2.70;;;;;;;4.38;100.00;102584.00;5051921;28;20109;-76
2022/12/03 01:50:42;;;;;;;3.20;2.72;;;;;;;4.23;100.00;102564.59;5055454;28;21870;-77
2022/12/03 01:53:13;;;;;;;5.25;2.70;;;;;;;4.37;100.00;102574.44;5051652;28;20111;-76
2022/12/03 01:55:40;;;;;;;4.25;2.55;;;;;;;4.43;100.00;102579.41;5052900;28;20035;-76
2022/12/03 01:58:08;;;;;;;5.28;2.97;;;;;;;4.45;100.00;102588.03;5052186;28;20048;-76
2022/12/03 02:00:33;;;;;;;3.33;2.60;;;;;;;4.39;100.00;102577.84;5055273;28;20058;-76
2022/12/03 02:03:10;;;;;;;7.22;4.38;;;;;;;4.43;100.00;102573.34;5038889;28;20036;-77
2022/12/03 02:05:36;;;;;;;4.88;3.35;;;;;;;4.42;100.00;102569.88;5057539;28;20025;-75
2022/12/03 02:08:32;;;;;;;2.80;2.53;;;;;;;4.36;100.00;102578.00;5056266;28;20077;-77
2022/12/03 02:11:05;;;;;;;11.65;3.22;;;;;;;4.29;100.00;102566.09;5071517;28;20956;-77
2022/12/03 02:13:31;;;;;;;7.63;3.63;;;;;;;4.33;100.00;102571.13;5056108;28;20049;-76
2022/12/03 02:15:57;;;;;;;6.68;3.08;;;;;;;4.16;100.00;102550.13;5056265;28;20036;-77
2022/12/03 02:18:22;;;;;;;5.45;2.45;;;;;;;4.39;100.00;102572.63;5053564;28;20043;-77
2022/12/03 02:21:14;;;;;;;5.85;3.13;;;;;;;4.41;100.00;102565.56;5057692;28;20036;-77
2022/12/03 02:24:03;;;;;;;4.55;2.05;;;;;;;4.36;100.00;102562.31;5056041;28;20031;-77
2022/12/03 02:26:28;;;;;;;6.53;2.90;;;;;;;4.29;100.00;102568.69;5069758;28;20058;-77
2022/12/03 02:28:54;;;;;;;3.58;2.67;;;;;;;4.35;100.00;102567.59;5055445;28;20059;-77
2022/12/03 02:31:19;;;;;;;7.70;3.13;;;;;;;4.29;100.00;102563.47;5053264;28;20387;-75
2022/12/03 02:33:45;;;;;;;9.90;3.33;;;;;;;4.19;100.00;102554.34;5038439;28;20043;-77
2022/12/03 02:36:11;;;;;;;6.57;2.83;;;;;;;4.26;100.00;102540.09;5037931;28;20119;-76
2022/12/03 02:38:37;;;;;;;4.85;2.60;;;;;;;4.38;100.00;102570.94;5056733;28;20041;-76
2022/12/03 02:41:06;;;;;;;12.27;4.30;;;;;;;4.32;100.00;102560.75;5056155;28;20638;-76
2022/12/03 02:43:32;;;;;;;5.38;2.15;;;;;;;4.39;100.00;102561.31;5051992;28;20727;-77
2022/12/03 02:46:00;;;;;;;5.30;2.85;;;;;;;4.33;100.00;102551.97;5057601;28;20086;-76
2022/12/03 02:48:31;;;;;;;4.43;2.97;;;;;;;4.12;100.00;102541.56;5054131;28;20037;-77
2022/12/03 02:50:59;;;;;;;8.43;4.07;;;;;;;4.30;100.00;102557.34;5056528;28;20135;-77
2022/12/03 02:53:32;;;;;;;3.97;3.42;;;;;;;4.22;100.00;102554.22;5055481;28;20413;-77
2022/12/03 02:56:00;;;;;;;6.30;4.07;;;;;;;4.38;100.00;102560.47;5057319;28;20672;-77
2022/12/03 02:58:29;;;;;;;5.63;2.65;;;;;;;4.32;100.00;102552.91;5055895;28;20457;-77
2022/12/03 03:00:55;;;;;;;5.18;4.07;;;;;;;4.32;100.00;102545.91;5055956;28;20504;-77
2022/12/03 03:03:23;;;;;;;5.32;2.50;;;;;;;4.36;100.00;102558.84;5053297;28;20033;-77
2022/12/03 03:05:49;;;;;;;5.43;3.72;;;;;;;4.40;100.00;102557.78;5054320;28;20036;-77
2022/12/03 03:08:17;;;;;;;5.68;2.53;;;;;;;4.00;100.00;102529.00;5057196;28;20025;-77
2022/12/03 03:10:43;;;;;;;7.03;2.72;;;;;;;4.04;100.00;102553.25;5056839;28;20511;-77
2022/12/03 03:13:11;;;;;;;8.60;4.22;;;;;;;3.99;100.00;102557.81;5054847;28;20894;-77
2022/12/03 03:15:39;;;;;;;6.60;3.22;;;;;;;3.90;100.00;102546.84;5055840;28;20024;-75
2022/12/03 03:18:06;;;;;;;8.27;2.83;;;;;;;4.05;100.00;102547.09;5053566;28;20041;-75
2022/12/03 03:20:32;;;;;;;5.45;3.10;;;;;;;3.97;100.00;102568.34;5037266;28;21560;-76
2022/12/03 03:23:09;;;;;;;3.88;2.63;;;;;;;3.91;100.00;102563.38;5041914;28;20047;-78
2022/12/03 03:25:35;;;;;;;4.80;2.92;;;;;;;3.99;100.00;102569.13;5055463;28;20052;-77
2022/12/03 03:28:01;;;;;;;4.18;3.25;;;;;;;3.96;100.00;102574.44;5054251;28;20107;-76
2022/12/03 03:30:27;;;;;;;6.75;2.80;;;;;;;3.78;100.00;102536.06;5054379;28;20040;-76
2022/12/03 03:32:52;;;;;;;5.57;3.75;;;;;;;3.92;100.00;102549.41;5054128;28;20127;-78
2022/12/03 03:35:18;;;;;;;4.93;3.25;;;;;;;3.91;100.00;102565.97;5053063;28;20036;-76
2022/12/03 03:37:43;;;;;;;5.03;3.67;;;;;;;3.86;100.00;102566.16;5053490;28;20039;-78
2022/12/03 03:40:09;;;;;;;6.25;2.80;;;;;;;3.81;100.00;102560.31;5054824;28;20036;-77
2022/12/03 03:42:36;;;;;;;7.03;3.00;;;;;;;3.86;100.00;102562.72;5055191;28;20017;-78
2022/12/03 03:45:02;;;;;;;3.13;1.88;;;;;;;3.78;100.00;102562.19;5053048;28;20894;-76
2022/12/03 03:47:27;;;;;;;8.95;4.03;;;;;;;3.77;100.00;102560.47;5056393;28;20032;-77
2022/12/03 03:49:53;;;;;;;7.35;3.92;;;;;;;3.76;100.00;102571.84;5051362;28;20033;-78
2022/12/03 03:52:19;;;;;;;6.57;3.75;;;;;;;3.77;100.00;102570.91;5053327;28;21134;-77
2022/12/03 03:54:45;;;;;;;9.05;4.07;;;;;;;3.77;100.00;102568.28;5042717;28;20024;-76
2022/12/03 03:57:11;;;;;;;7.90;3.13;;;;;;;3.79;100.00;102564.75;5053897;28;20028;-77
2022/12/03 03:59:37;;;;;;;5.00;3.78;;;;;;;3.89;100.00;102573.03;5046671;28;20046;-76
2022/12/03 04:02:02;;;;;;;5.15;3.47;;;;;;;3.80;100.00;102574.25;5052874;28;21721;-77
2022/12/03 04:04:35;;;;;;;21.75;5.50;;;;;;;3.87;100.00;102573.06;5052828;28;20535;-76
2022/12/03 04:07:01;;;;;;;8.13;4.55;;;;;;;3.74;100.00;102568.44;5057407;28;20024;-77
2022/12/03 04:09:26;;;;;;;3.17;2.65;;;;;;;3.76;100.00;102574.44;5053921;28;20028;-77
2022/12/03 04:14:35;;;;;;;8.07;4.07;;;;;;;3.81;100.00;102569.88;5053070;28;20044;-76
2022/12/03 04:17:01;;;;;;;5.03;4.20;;;;;;;3.80;100.00;102568.19;5053531;28;20128;-76
2022/12/03 04:19:26;;;;;;;3.92;2.85;;;;;;;3.65;100.00;102551.38;5054027;28;20052;-76
2022/12/03 04:24:49;;;;;;;7.00;3.28;;;;;;;3.33;100.00;102498.72;4978272;28;20169;-77
2022/12/03 04:29:58;;;;;;;2.88;2.25;;;;;;;3.71;100.00;102551.97;4963650;28;20045;-77
2022/12/03 04:37:53;;;;;;;5.18;3.20;;;;;;;3.53;100.00;102550.16;4978646;28;20053;-77
2022/12/03 04:43:02;;;;;;;6.70;3.78;;;;;;;3.52;100.00;102543.22;4964434;28;20100;-77
2022/12/03 04:45:28;;;;;;;5.63;2.78;;;;;;;3.61;100.00;102550.66;4960535;28;20519;-77
2022/12/03 04:47:53;;;;;;;7.07;3.80;;;;;;;3.68;100.00;102544.28;4964628;28;20038;-76
2022/12/03 04:50:18;;;;;;;4.20;3.38;;;;;;;3.53;100.00;102534.47;4976701;28;20066;-76
2022/12/03 04:52:44;;;;;;;6.57;5.07;;;;;;;3.58;100.00;102540.34;4980297;28;20034;-77
2022/12/03 04:55:09;;;;;;;9.77;4.68;;;;;;;3.39;100.00;102516.75;4979977;28;20125;-77
2022/12/03 04:57:35;;;;;;;5.47;3.90;;;;;;;3.42;100.00;102516.66;4943499;28;20085;-77
2022/12/03 05:00:00;;;;;;;7.50;3.65;;;;;;;3.51;100.00;102528.47;4971264;28;20055;-77
2022/12/03 05:02:26;;;;;;;7.30;3.75;;;;;;;3.63;100.00;102530.56;5051417;28;20462;-77
2022/12/03 05:04:51;;;;;;;7.60;3.80;;;;;;;3.68;100.00;102535.59;5051667;28;20036;-77
2022/12/03 05:07:16;;;;;;;4.88;3.33;;;;;;;3.63;100.00;102519.28;5053906;28;20053;-76
2022/12/03 05:09:42;;;;;;;8.88;3.85;;;;;;;3.50;100.00;102522.38;5037605;28;20040;-77
2022/12/03 05:12:07;;;;;;;8.68;4.00;;;;;;;3.49;100.00;102523.31;5036115;28;20121;-77
2022/12/03 05:14:33;;;;;;;7.97;3.65;;;;;;;3.42;100.00;102521.00;5053373;28;20052;-77
2022/12/03 05:16:58;;;;;;;6.28;4.95;;;;;;;3.43;100.00;102522.72;5048130;28;20060;-76
2022/12/03 05:20:40;;;;;;;6.47;4.03;;;;;;;3.47;100.00;102530.34;5040797;28;20040;-76
2022/12/03 05:22:09;;;;;;;3.08;2.75;;;;;;;3.38;100.00;102522.06;5056763;28;20094;-76
2022/12/03 05:24:34;;;;;;;5.97;4.10;;;;;;;3.40;100.00;102528.06;5040252;28;20123;-76
2022/12/03 05:26:59;;;;;;;10.57;3.20;;;;;;;3.37;100.00;102508.13;5055071;28;20029;-76
2022/12/03 05:29:25;;;;;;;7.28;2.92;;;;;;;3.34;100.00;102504.81;5038555;28;20118;-76
2022/12/03 05:31:50;;;;;;;5.43;2.75;;;;;;;3.34;100.00;102525.69;5024558;28;20036;-76
2022/12/03 05:34:15;;;;;;;4.72;4.05;;;;;;;3.41;100.00;102508.88;5055873;28;20032;-77
2022/12/03 05:36:41;;;;;;;7.63;4.80;;;;;;;3.49;100.00;102522.47;5036460;28;20032;-76
2022/12/03 05:39:06;;;;;;;9.38;3.88;;;;;;;3.37;100.00;102507.28;5055400;28;20043;-77
2022/12/03 05:44:15;;;;;;;6.82;3.28;;;;;;;3.42;100.00;102507.94;5045313;28;20095;-75
2022/12/03 05:46:41;;;;;;;6.13;3.15;;;;;;;3.47;100.00;102526.91;5055719;28;21031;-76
2022/12/03 05:49:06;;;;;;;4.97;1.92;;;;;;;3.49;100.00;102525.06;5057119;28;20036;-77
2022/12/03 05:51:31;;;;;;;5.60;2.97;;;;;;;3.56;100.00;102518.69;5055656;28;20043;-76
2022/12/03 05:53:57;;;;;;;3.40;2.70;;;;;;;3.54;100.00;102510.06;5059583;28;20028;-77
2022/12/03 05:56:22;;;;;;;4.47;2.72;;;;;;;3.52;100.00;102516.25;5059087;28;20032;-76
2022/12/03 05:58:47;;;;;;;8.48;4.20;;;;;;;3.55;100.00;102510.91;5054799;28;20040;-76
2022/12/03 06:01:13;;;;;;;7.88;3.63;;;;;;;3.36;100.00;102513.44;5057454;28;20512;-78
2022/12/03 06:03:38;;;;;;;8.55;2.92;;;;;;;3.44;100.00;102529.59;5037155;28;20028;-76
2022/12/03 06:06:03;;;;;;;11.57;3.83;;;;;;;3.44;100.00;102513.94;5057950;28;20036;-76
2022/12/03 06:08:29;;;;;;;12.43;3.63;;;;;;;3.44;100.00;102520.03;5055648;28;20123;-76
2022/12/03 06:10:54;;;;;;;8.45;3.92;;;;;;;3.53;100.00;102521.44;5054398;28;20059;-75
2022/12/03 06:13:19;;;;;;;3.45;3.15;;;;;;;3.40;100.00;102494.97;5037803;28;20111;-78
2022/12/03 06:15:45;;;;;;;4.30;2.70;;;;;;;3.41;100.00;102509.72;5043526;28;20411;-75
2022/12/03 06:18:11;;;;;;;9.18;2.80;;;;;;;3.33;100.00;102488.28;5055560;28;20029;-76
2022/12/03 06:20:36;;;;;;;6.72;3.58;;;;;;;3.41;100.00;102509.72;5055499;28;20032;-76
2022/12/03 06:23:02;;;;;;;3.47;2.78;;;;;;;3.37;100.00;102502.06;5039127;28;20036;-76
2022/12/03 06:25:27;;;;;;;13.65;4.55;;;;;;;3.27;100.00;102507.66;5054486;28;20052;-76
2022/12/03 06:27:52;;;;;;;6.38;3.17;;;;;;;3.37;100.00;102496.84;5052643;28;20032;-76
2022/12/03 06:30:18;;;;;;;9.73;4.05;;;;;;;3.24;100.00;102497.34;5053744;28;20033;-76
2022/12/03 06:32:43;;;;;;;3.70;2.17;;;;;;;3.19;100.00;102494.06;5051150;28;20048;-77
2022/12/03 06:35:08;;;;;;;2.75;2.47;;;;;;;3.25;100.00;102493.84;5039084;28;20125;-75
2022/12/03 06:37:34;;;;;;;9.93;3.58;;;;;;;3.35;100.00;102498.66;5054482;28;20029;-76
2022/12/03 06:39:59;;;;;;;6.22;4.20;;;;;;;3.37;100.00;102497.69;5055227;28;20111;-76
2022/12/03 06:42:25;;;;;;;5.57;2.85;;;;;;;3.19;100.00;102483.63;5033604;28;20067;-76
2022/12/03 06:44:50;;;;;;;7.15;3.13;;;;;;;3.27;100.00;102499.00;5052308;28;20057;-77
2022/12/03 06:47:16;;;;;;;3.97;2.95;;;;;;;3.37;100.00;102486.41;5036132;28;20074;-76
2022/12/03 06:49:41;;;;;;;2.83;2.58;;;;;;;3.32;100.00;102490.97;5053308;28;20024;-77
2022/12/03 06:52:06;;;;;;;5.53;2.35;;;;;;;3.32;100.00;102490.97;5052868;28;20053;-75
2022/12/03 06:54:32;;;;;;;5.63;2.63;;;;;;;3.27;100.00;102492.00;5053479;28;20436;-76
2022/12/03 06:56:57;;;;;;;8.90;2.70;;;;;;;3.24;100.00;102492.13;5052302;28;20123;-75
2022/12/03 06:59:23;;;;;;;4.50;2.33;;;;;;;3.06;100.00;102478.06;5036320;28;20081;-75
2022/12/03 07:01:48;;;;;;;2.75;1.60;;;;;;;3.21;100.00;102489.66;5038507;28;20033;-76
2022/12/03 07:04:13;;;;;;;6.28;2.53;;;;;;;3.22;100.00;102495.72;5060290;28;20016;-76
2022/12/03 07:06:39;;;;;;;5.10;3.50;;;;;;;3.20;100.00;102494.91;5054019;28;20052;-75
2022/12/03 07:09:04;;;;;;;12.10;2.58;;;;;;;3.16;100.00;102488.13;5053756;28;20045;-77
2022/12/03 07:11:30;;;;;;;4.43;2.97;;;;;;;3.24;100.00;102481.69;5039873;28;20487;-76
2022/12/03 07:13:56;;;;;;;11.25;3.85;;;;;;;3.28;100.00;102498.91;5055192;28;20060;-76
2022/12/03 07:16:21;;;;;;;4.25;2.55;;;;;;;3.07;100.00;102479.78;5038210;28;20029;-78
2022/12/03 07:18:47;;;;;;;7.45;3.22;;;;;;;3.12;100.00;102505.69;5040636;28;20090;-75
2022/12/03 07:21:12;;;;;;;4.20;2.50;;;;;;;3.12;100.00;102503.06;5055645;28;20029;-75
2022/12/03 07:23:37;;;;;;;4.13;2.13;;;;;;;3.14;100.00;102501.25;5055162;28;20063;-75
2022/12/03 07:26:03;;;;;;;4.93;3.78;;;;;;;3.15;100.00;102497.72;5054960;28;20055;-75
2022/12/03 07:28:28;;;;;;;6.35;3.55;;;;;;;3.07;100.00;102502.38;5055753;28;20079;-76
2022/12/03 07:30:54;;;;;;;7.70;3.53;;;;;;;2.86;100.00;102512.75;5037946;28;20067;-75
2022/12/03 07:33:19;;;;;;;8.65;3.67;;;;;;;2.94;100.00;102509.00;5052458;28;20078;-74
2022/12/03 07:35:44;;;;;;;4.85;3.33;;;;;;;2.89;100.00;102504.81;5053093;28;20025;-73
2022/12/03 07:38:10;;;;;;;4.88;3.75;;;;;;;2.97;100.00;102506.28;5052446;28;20124;-75
2022/12/03 07:40:35;;;;;;;3.70;2.75;;;;;;;2.87;100.00;102498.81;5055519;28;20055;-76
2022/12/03 07:43:00;;;;;;;5.55;1.40;;;;;;;2.89;100.00;102515.22;5035967;28;20032;-74
2022/12/03 07:45:26;;;;;;;4.53;2.47;;;;;;;2.85;100.00;102507.59;5022360;28;20087;-73
2022/12/03 07:47:51;;;;;;;7.95;4.32;;;;;;;2.74;100.00;102481.09;5055152;28;20032;-76
2022/12/03 07:50:16;;;;;;;5.50;2.10;;;;;;;2.74;100.00;102505.38;5051664;28;20048;-77
2022/12/03 07:52:42;;;;;;;8.65;4.10;;;;;;;2.55;100.00;102486.13;5054992;28;20028;-80
2022/12/03 07:55:09;;;;;;;9.60;4.50;;;;;;;2.62;100.00;102503.28;5038906;28;20037;-76
2022/12/03 07:57:34;;;;;;;3.13;2.55;;;;;;;2.71;100.00;102502.91;5054139;28;20028;-77
2022/12/03 08:00:00;;;;;;;8.00;2.70;;;;;;;2.65;100.00;102487.50;5056323;28;20029;-79
2022/12/03 08:02:25;;;;;;;7.68;3.75;;;;;;;2.77;100.00;102507.06;5039502;28;20619;-78
2022/12/03 08:04:50;;;;;;;4.22;3.00;;;;;;;2.59;100.00;102505.97;5055777;28;20032;-79
2022/12/03 08:07:16;;;;;;;4.72;3.13;;;;;;;2.59;100.00;102498.16;5055673;28;20069;-77
2022/12/03 08:09:42;;;;;;;8.75;3.78;;;;;;;2.67;100.00;102511.75;5037948;28;20028;-79
2022/12/03 08:12:16;;;;;;;3.03;2.70;;;;;;;2.64;100.00;102498.84;5055907;28;20541;-78
2022/12/03 08:14:42;;;;;;;4.88;3.63;;;;;;;2.36;100.00;102480.78;5054434;28;20024;-78
2022/12/03 08:17:11;;;;;;;7.38;2.65;;;;;;;2.48;100.00;102498.56;5056471;28;20033;-78
2022/12/03 08:19:37;;;;;;;4.55;2.88;;;;;;;2.50;100.00;102493.28;5056219;28;20040;-79
2022/12/03 08:22:10;;;;;;;4.65;3.75;;;;;;;2.55;100.00;102496.56;5054359;28;20476;-79
2022/12/03 08:24:35;;;;;;;6.20;4.20;;;;;;;2.53;100.00;102503.63;5054219;28;20052;-78
2022/12/03 08:27:01;;;;;;;3.05;2.63;;;;;;;2.47;100.00;102509.91;5054349;28;20021;-79
2022/12/03 08:29:26;;;;;;;2.67;2.15;;;;;;;2.50;100.00;102506.31;5055300;28;20032;-78
2022/12/03 08:31:55;;;;;;;5.75;4.45;;;;;;;2.38;100.00;102495.44;5055373;28;20079;-78
2022/12/03 08:34:26;;;;;;;4.20;2.67;;;;;;;2.53;100.00;102501.00;5062580;28;20437;-78
2022/12/03 08:37:04;;;;;;;8.10;4.53;;;;;;;2.54;100.00;102497.50;5054967;28;20102;-77
2022/12/03 08:39:32;;;;;;;4.55;3.33;;;;;;;2.52;100.00;102501.91;5056142;28;20033;-78
2022/12/03 08:45:38;;;;;;;4.82;4.25;;;;;;;2.38;100.00;102505.88;5056779;28;20551;-77
2022/12/03 08:48:26;;;;;;;6.55;3.72;;;;;;;2.53;100.00;102503.63;5055971;28;20029;-78
2022/12/03 08:50:54;;;;;;;9.50;4.75;;;;;;;2.37;100.00;102498.94;5056762;28;20031;-78
2022/12/03 08:53:29;;;;;;;10.68;3.30;;;;;;;2.29;100.00;102474.94;5062327;28;20074;-78
2022/12/03 08:56:15;;;;;;;4.13;3.60;;;;;;;2.27;100.00;102468.94;5062690;28;20028;-79
2022/12/03 08:58:46;;;;;;;4.78;4.15;;;;;;;2.26;100.00;102477.66;5055427;28;20396;-77
2022/12/03 09:01:11;;;;;;;11.63;3.38;;;;;;;2.38;100.00;102492.84;5055920;28;20645;-77
2022/12/03 09:03:40;;;;;;;8.27;2.53;;;;;;;2.44;100.00;102474.38;5053439;28;20104;-77
2022/12/03 09:06:05;;;;;;;4.90;2.47;;;;;;;2.53;100.00;102469.75;5055312;28;20032;-78
2022/12/03 09:08:31;;;;;;;5.68;4.25;;;;;;;2.47;100.00;102474.25;5055043;28;20075;-78
2022/12/03 09:10:56;;;;;;;11.73;4.15;;;;;;;2.54;100.00;102497.50;5055278;28;20083;-78
2022/12/03 09:13:21;;;;;;;5.57;3.67;;;;;;;2.54;100.00;102493.13;5041379;28;20025;-78
2022/12/03 09:15:47;;;;;;;8.02;3.33;;;;;;;2.50;100.00;102478.50;5058330;28;20032;-77
2022/12/03 09:18:15;;;;;;;6.65;4.72;;;;;;;2.50;100.00;102475.06;5059464;28;20040;-77
2022/12/03 09:20:40;;;;;;;5.47;3.63;;;;;;;2.56;100.00;102490.47;5060490;28;20082;-78
2022/12/03 09:23:06;;;;;;;10.32;4.40;;;;;;;2.38;100.00;102484.19;5040618;28;20503;-79
2022/12/03 09:25:31;;;;;;;3.03;2.08;;;;;;;2.35;100.00;102486.88;5058116;28;20059;-77
2022/12/03 09:27:56;;;;;;;4.43;3.40;;;;;;;2.49;100.00;102489.00;5040208;28;20056;-78
2022/12/03 09:30:22;;;;;;;5.57;3.55;;;;;;;2.44;100.00;102490.03;5059854;28;20396;-78
2022/12/03 09:32:47;;;;;;;4.95;2.58;;;;;;;2.44;100.00;102470.94;5058827;28;20068;-78
2022/12/03 09:35:13;;;;;;;6.88;4.10;;;;;;;2.30;100.00;102474.03;5042676;28;20040;-79
2022/12/03 09:37:38;;;;;;;4.05;3.63;;;;;;;2.38;100.00;102478.97;5027048;28;20186;-79
2022/12/03 09:40:05;;;;;;;3.70;2.67;;;;;;;2.39;100.00;102476.28;5042084;28;20021;-78
2022/12/03 09:42:30;;;;;;;6.90;4.03;;;;;;;2.43;100.00;102483.09;5057041;28;20032;-77
2022/12/03 09:44:56;;;;;;;6.22;3.65;;;;;;;2.45;100.00;102481.28;5058620;28;20025;-77
2022/12/03 09:47:21;;;;;;;8.40;3.80;;;;;;;2.54;100.00;102490.50;5060298;28;20024;-76
2022/12/03 09:49:47;;;;;;;7.90;4.45;;;;;;;2.54;100.00;102481.84;5058584;28;20035;-76
2022/12/03 09:52:24;;;;;;;9.10;4.93;;;;;;;2.43;100.00;102464.84;5059228;28;20059;-78
2022/12/03 09:54:50;;;;;;;8.23;4.38;;;;;;;2.45;100.00;102470.00;5060224;28;20025;-78
2022/12/03 09:57:15;;;;;;;7.18;3.10;;;;;;;2.63;100.00;102482.34;5065600;28;20074;-77
2022/12/03 09:59:41;;;;;;;5.43;3.72;;;;;;;2.57;100.00;102479.13;5041580;28;20439;-79
2022/12/03 10:02:20;;;;;;;6.10;3.50;;;;;;;2.59;100.00;102480.78;5065530;28;20035;-78
2022/12/03 10:04:46;;;;;;;6.18;3.33;;;;;;;2.40;100.00;102462.38;5058161;28;20028;-78
2022/12/03 10:07:11;;;;;;;11.27;3.13;;;;;;;2.57;100.00;102476.50;5059722;28;20430;-79
2022/12/03 10:09:37;;;;;;;5.65;3.15;;;;;;;2.20;100.00;102424.03;5057135;28;20032;-78
2022/12/03 10:12:02;;;;;;;4.53;4.18;;;;;;;2.44;100.00;102452.69;5024285;28;20045;-78
2022/12/03 10:14:29;;;;;;;5.43;3.78;;;;;;;2.67;100.00;102477.88;5040690;28;20039;-76
2022/12/03 10:16:55;;;;;;;7.25;4.07;;;;;;;2.76;100.00;102472.28;5049147;28;20036;-76
2022/12/03 10:19:27;;;;;;;12.80;5.63;;;;;;;2.76;100.00;102464.47;5058085;28;20688;-77
2022/12/03 10:21:54;;;;;;;7.25;3.95;;;;;;;2.70;100.00;102459.50;5058364;28;20028;-78
2022/12/03 10:24:27;;;;;;;7.45;3.92;;;;;;;2.67;100.00;102467.44;5040804;28;20048;-78
2022/12/03 10:27:01;;;;;;;6.30;4.60;;;;;;;2.60;100.00;102472.03;5057740;28;20063;-76
2022/12/03 10:29:32;;;;;;;9.98;3.72;;;;;;;2.77;100.00;102466.19;5058393;28;20111;-78
2022/12/03 10:32:05;;;;;;;;;;;;;;;2.62;100.00;102462.41;5059469;28;20083;-78
2022/12/03 10:34:41;;;;;;;5.78;2.75;;;;;;;2.58;100.00;102439.13;5059697;28;19909;-78
2022/12/03 10:37:12;;;;;;;9.80;4.70;;;;;;;2.63;100.00;102447.59;5055415;28;20029;-80
2022/12/03 10:40:10;;;;;;;5.35;3.60;;;;;;;2.42;100.00;102452.75;5068705;28;20044;-78
2022/12/03 10:42:38;;;;;;;5.63;2.70;;;;;;;2.69;100.00;102455.19;5048394;28;20098;-78
2022/12/03 10:45:07;;;;;;;4.47;3.10;;;;;;;2.69;100.00;102447.38;5056525;28;20033;-76
2022/12/03 10:47:33;;;;;;;6.03;3.08;;;;;;;2.67;100.00;102447.41;5054114;28;20024;-77
2022/12/03 10:50:05;;;;;;;6.10;4.00;;;;;;;2.65;100.00;102430.16;5056868;28;20075;-78
2022/12/03 10:52:31;;;;;;;9.70;4.13;;;;;;;2.71;100.00;102445.56;5055865;28;20029;-79
2022/12/03 10:54:57;;;;;;;5.72;2.95;;;;;;;2.77;100.00;102434.91;5052309;28;20457;-78
2022/12/03 10:57:23;;;;;;;4.63;3.63;;;;;;;2.46;100.00;102409.16;5050654;28;20029;-83
2022/12/03 10:59:50;;;;;;;7.63;4.43;;;;;;;2.61;100.00;102423.34;5051257;28;20032;-82
2022/12/03 11:02:19;;;;;;;5.10;4.25;;;;;;;2.61;100.00;102431.19;5050532;28;20032;-83
2022/12/03 11:04:45;;;;;;;8.10;4.45;;;;;;;2.83;100.00;102429.44;5052131;28;20769;-82
2022/12/03 11:07:14;;;;;;;7.88;4.32;;;;;;;2.66;100.00;102432.72;5039272;28;20089;-84
2022/12/03 11:09:42;;;;;;;13.15;5.43;;;;;;;2.65;100.00;102424.94;5052729;28;20091;-81
2022/12/03 11:12:16;;;;;;;15.43;5.28;;;;;;;2.50;100.00;102431.59;5055750;28;20593;-79
2022/12/03 11:14:47;;;;;;;5.68;4.75;;;;;;;2.65;100.00;102430.16;5054790;28;20036;-77
2022/12/03 11:17:32;;;;;;;11.52;3.85;;;;;;;2.53;100.00;102399.38;5055621;28;20041;-77
2022/12/03 11:19:58;;;;;;;3.63;3.30;;;;;;;2.63;100.00;102416.31;5056181;28;20118;-78
2022/12/03 11:22:27;;;;;;;9.48;6.00;;;;;;;2.58;100.00;102405.25;5053958;28;20040;-77
2022/12/03 11:25:24;;;;;;;5.60;4.13;;;;;;;2.58;100.00;102424.31;5060876;28;20128;-78
2022/12/03 11:28:13;;;;;;;5.55;3.88;;;;;;;2.64;100.00;102412.81;5054675;28;20036;-78
2022/12/03 11:30:47;;;;;;;9.65;4.07;;;;;;;2.57;100.00;102417.44;5062013;28;20028;-77
2022/12/03 11:33:36;;;;;;;6.07;3.97;;;;;;;2.82;100.00;102412.09;5053824;28;20052;-78
2022/12/03 11:36:02;;;;;;;5.45;3.67;;;;;;;2.77;100.00;102403.59;5054260;28;20017;-77
2022/12/03 11:38:51;;;;;;;5.90;4.22;;;;;;;2.62;100.00;102394.63;5054177;28;20044;-76
2022/12/03 11:41:26;;;;;;;6.13;3.13;;;;;;;2.71;100.00;102406.44;5059024;28;20078;-77
2022/12/03 11:43:51;;;;;;;6.55;4.65;;;;;;;2.66;100.00;102395.38;5052626;28;20032;-77
2022/12/03 11:46:29;;;;;;;8.43;5.95;;;;;;;2.56;100.00;102339.28;5053073;28;20025;-76
2022/12/03 11:48:57;;;;;;;7.65;4.22;;;;;;;2.99;100.00;102392.31;5050899;28;20024;-77
2022/12/03 11:51:26;;;;;;;17.90;5.05;;;;;;;2.80;100.00;102387.81;5053394;28;20119;-77
2022/12/03 11:53:55;;;;;;;4.15;3.17;;;;;;;2.86;100.00;102384.97;5051385;28;20089;-77